Nearby METAR Reports

 

KBFI - Boeing Field Seattle, WA, USA
Distance from station: SE 4mi, 7km
Updated: Thu, 12/14/2017 4:53am PST
Clear
Clear
 Wind from calm
Wind: Calm
Temperature: 34°F , 1°C
Dew Point: 34°F , 1°C
Humidity: 100%
Barometer: 30.35 inHg , 1027.8 hPa
Clouds: Clear
Visibility: 9 miles , 14 km
2017/12/14 12:53 KBFI 141253Z 00000KT 9SM CLR 01/01 A3035 RMK AO2 SLP276 T00110011
KSEA - Seattle/Metro, WA, USA
Distance from station: NE 5mi, 8km
Updated: Thu, 12/14/2017 4:53am PST
Partly cloudy
Partly cloudy
 Wind from NNE
Wind: NNE 10 mph , 17 km/h
Temperature: 39°F , 4°C
Wind Chill: 32°F , 0°C
Dew Point: 37°F , 3°C
Humidity: 93%
Barometer: 30.33 inHg , 1027.1 hPa
Clouds: Partly cloudy
Visibility: 10 miles , 16 km
Cloud details: Partly cloudy 25000 ft
2017/12/14 12:53 KSEA 141253Z 03009KT 10SM SCT250 04/03 A3033 RMK AO2 SLP279 T00390028
 
KTIW - Tacoma, WA, USA
Distance from station: S 30mi, 45km
Updated: Thu, 12/14/2017 5:10am PST
Mist, Clear
Mist, Clear
 Wind from calm
Wind: Calm
Temperature: 36°F , 2°C
Dew Point: 36°F , 2°C
Humidity: 100%
Barometer: 30.33 inHg , 1027.1 hPa
Summary: Mist
Clouds: Clear
Visibility: 1 1/2 miles , 2 km
2017/12/14 13:10 KTIW 141310Z AUTO 00000KT 1 1/2SM BR CLR 02/02 A3033 RMK AO2 T00220022
KCLM - Port Angeles, WA, USA
Distance from station: NW 70mi, 100km
Updated: Thu, 12/14/2017 4:53am PST
Clear
Clear
 Wind from calm
Wind: Calm
Temperature: 34°F , 1°C
Dew Point: 34°F , 1°C
Humidity: 100%
Barometer: 30.37 inHg , 1028.4 hPa
Clouds: Clear
Visibility: 10 miles , 16 km
2017/12/14 12:53 KCLM 141253Z AUTO 00000KT 10SM CLR 01/01 A3037 RMK AO2 SLP286 T00110011